createdAt,value
2023-05-18T00:01:45.060Z,99941.31
2023-05-18T00:04:13.346Z,99946.41
2023-05-18T00:06:41.659Z,99943.00
2023-05-18T00:09:09.936Z,99960.53
2023-05-18T00:11:41.195Z,99953.16
2023-05-18T00:14:09.437Z,99946.97
2023-05-18T00:16:37.597Z,99951.38
2023-05-18T00:19:07.176Z,99959.75
2023-05-18T00:21:36.291Z,99942.97
2023-05-18T00:24:04.515Z,99961.44
2023-05-18T00:26:32.568Z,99957.28
2023-05-18T00:29:00.747Z,99952.13
2023-05-18T00:31:28.982Z,99953.88
2023-05-18T00:33:57.155Z,99947.41
2023-05-18T00:36:26.567Z,99952.69
2023-05-18T00:38:54.685Z,99947.97
2023-05-18T00:41:22.891Z,99945.91
2023-05-18T00:43:51.021Z,99951.75
2023-05-18T00:46:19.140Z,99948.09
2023-05-18T00:48:47.770Z,99936.19
2023-05-18T00:51:16.296Z,99958.50
2023-05-18T00:53:46.001Z,99955.25
2023-05-18T00:56:14.190Z,99963.16
2023-05-18T00:58:43.305Z,99961.56
2023-05-18T01:01:11.536Z,99958.44
2023-05-18T01:03:40.428Z,99965.78
2023-05-18T01:06:10.504Z,99965.88
2023-05-18T01:08:39.011Z,99975.19
2023-05-18T01:11:16.256Z,99965.75
2023-05-18T01:13:55.203Z,99963.28
2023-05-18T01:16:28.211Z,99974.63
2023-05-18T01:19:05.773Z,99975.19
2023-05-18T01:21:46.558Z,99976.13
2023-05-18T01:24:29.074Z,99975.19
2023-05-18T01:27:02.193Z,99977.81
2023-05-18T01:29:31.518Z,99982.75
2023-05-18T01:31:59.666Z,99984.25
2023-05-18T01:34:28.033Z,99973.88
2023-05-18T01:36:56.201Z,99983.97
2023-05-18T01:39:24.288Z,99987.69
2023-05-18T01:41:57.290Z,99988.53
2023-05-18T01:44:33.090Z,99996.34
2023-05-18T01:47:05.563Z,99994.06
2023-05-18T01:49:37.432Z,100001.31
2023-05-18T01:52:10.419Z,99996.28
2023-05-18T01:54:44.490Z,100002.16
2023-05-18T01:57:13.846Z,100000.63
2023-05-18T01:59:44.516Z,100006.59
2023-05-18T02:02:13.298Z,99997.25
2023-05-18T02:04:41.596Z,100003.16
2023-05-18T02:07:11.195Z,100007.69
2023-05-18T02:09:39.346Z,100007.59
2023-05-18T02:12:08.384Z,100016.28
2023-05-18T02:14:36.548Z,100009.50
2023-05-18T02:17:07.255Z,100009.66
2023-05-18T02:19:38.410Z,100015.78
2023-05-18T02:22:07.357Z,100013.25
2023-05-18T02:24:35.776Z,100022.97
2023-05-18T02:27:03.902Z,100016.84
2023-05-18T02:29:32.120Z,100022.09
2023-05-18T02:32:00.295Z,100029.59
2023-05-18T02:34:33.124Z,100028.94
2023-05-18T02:37:03.815Z,100024.41
2023-05-18T02:39:34.059Z,100028.75
2023-05-18T02:42:02.280Z,100035.06
2023-05-18T02:44:30.429Z,100032.66
2023-05-18T02:46:58.581Z,100036.91
2023-05-18T02:49:26.900Z,100035.41
2023-05-18T02:51:56.445Z,100032.78
2023-05-18T02:54:24.568Z,100031.88
2023-05-18T02:56:57.020Z,100031.44
2023-05-18T02:59:25.229Z,100030.28
2023-05-18T03:01:54.370Z,100033.88
2023-05-18T03:04:26.201Z,100034.63
2023-05-18T03:06:54.393Z,100034.72
2023-05-18T03:09:24.167Z,100032.00
2023-05-18T03:11:53.606Z,100032.94
2023-05-18T03:14:21.737Z,100034.63
2023-05-18T03:16:53.931Z,100041.13
2023-05-18T03:19:22.090Z,100034.03
2023-05-18T03:21:50.369Z,100035.88
2023-05-18T03:24:18.472Z,100039.44
2023-05-18T03:26:47.928Z,100038.50
2023-05-18T03:29:16.011Z,100035.38
2023-05-18T03:31:44.502Z,100047.72
2023-05-18T03:34:12.666Z,100040.56
2023-05-18T03:36:40.815Z,100048.47
2023-05-18T03:39:10.012Z,100048.31
2023-05-18T03:41:38.182Z,100055.44
2023-05-18T03:44:07.792Z,100055.44
2023-05-18T03:46:35.924Z,100054.94
2023-05-18T03:49:05.134Z,100055.63
2023-05-18T03:51:33.205Z,100060.06
2023-05-18T03:54:01.374Z,100062.50
2023-05-18T03:56:31.362Z,100067.72
2023-05-18T03:59:00.295Z,100064.28
2023-05-18T04:01:30.527Z,100064.88
2023-05-18T04:03:59.067Z,100070.34
2023-05-18T04:06:27.726Z,100052.19
2023-05-18T04:08:56.121Z,100072.97
2023-05-18T04:11:24.304Z,100067.88
2023-05-18T04:13:52.430Z,100070.50
2023-05-18T04:16:22.176Z,100079.44
2023-05-18T04:18:51.743Z,100076.28
2023-05-18T04:21:20.576Z,100079.53
2023-05-18T04:23:48.654Z,100080.09
2023-05-18T04:26:20.108Z,100084.44
2023-05-18T04:28:48.485Z,100082.84
2023-05-18T04:31:17.948Z,100092.19
2023-05-18T04:33:47.443Z,100087.97
2023-05-18T04:36:21.166Z,100093.25
2023-05-18T04:38:50.941Z,100097.38
2023-05-18T04:41:20.700Z,100101.91
2023-05-18T04:43:48.776Z,100098.50
2023-05-18T04:46:17.151Z,100093.88
2023-05-18T04:48:47.911Z,100094.75
2023-05-18T04:51:18.181Z,100097.47
2023-05-18T04:53:46.236Z,100092.06
2023-05-18T04:56:15.211Z,100087.38
2023-05-18T04:58:46.125Z,100095.13
2023-05-18T05:01:15.532Z,100090.63
2023-05-18T05:03:44.069Z,100094.78
2023-05-18T05:06:13.114Z,100102.38
2023-05-18T05:08:42.601Z,100102.53
2023-05-18T05:11:10.914Z,100106.72
2023-05-18T05:13:39.144Z,100110.88
2023-05-18T05:16:07.762Z,100104.81
2023-05-18T05:18:35.968Z,100105.59
2023-05-18T05:21:04.165Z,100112.66
2023-05-18T05:23:32.542Z,100106.53
2023-05-18T05:26:02.095Z,100119.38
2023-05-18T05:28:30.281Z,100112.31
2023-05-18T05:30:58.514Z,100113.34
2023-05-18T05:33:27.051Z,100116.75
2023-05-18T05:35:55.604Z,100116.22
2023-05-18T05:38:24.049Z,100108.47
2023-05-18T05:40:52.132Z,100123.03
2023-05-18T05:43:21.614Z,100115.22
2023-05-18T05:45:50.209Z,100123.63
2023-05-18T05:48:18.435Z,100128.31
2023-05-18T05:50:47.109Z,100128.66
2023-05-18T05:53:17.987Z,100133.59
2023-05-18T05:55:47.031Z,100133.94
2023-05-18T05:58:15.261Z,100129.50
2023-05-18T06:00:46.833Z,100139.22
2023-05-18T06:03:14.962Z,100135.13
2023-05-18T06:05:43.298Z,100142.09
2023-05-18T06:08:11.415Z,100145.00
2023-05-18T06:10:41.438Z,100147.03
2023-05-18T06:13:09.711Z,100152.16
2023-05-18T06:15:37.915Z,100142.63
2023-05-18T06:18:07.697Z,100151.56
2023-05-18T06:20:36.043Z,100157.69
2023-05-18T06:23:04.323Z,100155.56
2023-05-18T06:25:32.732Z,100158.44
2023-05-18T06:28:00.975Z,100157.00
2023-05-18T06:30:29.174Z,100156.75
2023-05-18T06:32:57.438Z,100161.69
2023-05-18T06:35:27.120Z,100158.97
2023-05-18T06:37:55.158Z,100145.84
2023-05-18T06:40:23.324Z,100154.97
2023-05-18T06:42:51.821Z,100164.91
2023-05-18T06:45:20.658Z,100172.94
2023-05-18T06:47:48.838Z,100169.59
2023-05-18T06:50:17.525Z,100175.66
2023-05-18T06:52:47.194Z,100178.38
2023-05-18T06:55:15.541Z,100180.06
2023-05-18T06:57:43.722Z,100182.91
2023-05-18T07:00:12.879Z,100187.34
2023-05-18T07:02:43.451Z,100180.75
2023-05-18T07:05:11.599Z,100187.50
2023-05-18T07:07:39.863Z,100194.06
2023-05-18T07:10:10.453Z,100193.19
2023-05-18T07:12:38.568Z,100201.53
2023-05-18T07:15:08.094Z,100197.44
2023-05-18T07:17:39.635Z,100205.56
2023-05-18T07:20:09.380Z,100205.03
2023-05-18T07:22:37.588Z,100202.38
2023-05-18T07:25:06.472Z,100196.44
2023-05-18T07:27:36.010Z,100202.91
2023-05-18T07:30:04.662Z,100202.72
2023-05-18T07:32:32.965Z,100204.25
2023-05-18T07:35:01.286Z,100209.69
2023-05-18T07:37:29.382Z,100208.00
2023-05-18T07:39:57.606Z,100207.63
2023-05-18T07:42:25.657Z,100216.50
2023-05-18T07:44:55.117Z,100214.03
2023-05-18T07:47:23.488Z,100198.59
2023-05-18T07:49:51.672Z,100212.84
2023-05-18T07:52:19.747Z,100219.72
2023-05-18T07:54:47.880Z,100221.41
2023-05-18T07:57:16.031Z,100225.16
2023-05-18T07:59:44.245Z,100218.50
2023-05-18T08:02:13.960Z,100218.22
2023-05-18T08:04:42.180Z,100219.59
2023-05-18T08:07:10.827Z,100223.75
2023-05-18T08:09:38.944Z,100225.97
2023-05-18T08:12:07.523Z,100224.66
2023-05-18T08:14:35.784Z,100220.97
2023-05-18T08:17:05.059Z,100231.81
2023-05-18T08:19:34.602Z,100227.78
2023-05-18T08:22:02.678Z,100233.13
2023-05-18T08:24:30.865Z,100229.75
2023-05-18T08:26:58.960Z,100230.53
2023-05-18T08:29:27.056Z,100233.75
2023-05-18T08:31:55.276Z,100233.53
2023-05-18T08:34:23.640Z,100244.31
2023-05-18T08:36:53.192Z,100246.41
2023-05-18T08:39:22.704Z,100238.47
2023-05-18T08:41:56.983Z,100249.25
2023-05-18T08:44:30.998Z,100240.53
2023-05-18T08:47:00.034Z,100234.13
2023-05-18T08:49:28.816Z,100246.31
2023-05-18T08:52:02.045Z,100246.78
2023-05-18T08:54:32.329Z,100245.25
2023-05-18T08:57:00.656Z,100241.06
2023-05-18T08:59:34.717Z,100250.75
2023-05-18T09:02:02.983Z,100249.22
2023-05-18T09:04:32.082Z,100239.09
2023-05-18T09:07:03.911Z,100242.25
2023-05-18T09:09:33.398Z,100243.44
2023-05-18T09:12:01.829Z,100235.13
2023-05-18T09:14:31.105Z,100235.81
2023-05-18T09:16:59.297Z,100238.22
2023-05-18T09:19:28.683Z,100245.00
2023-05-18T09:21:56.922Z,100242.44
2023-05-18T09:24:27.108Z,100238.38
2023-05-18T09:26:55.961Z,100245.47
2023-05-18T09:29:25.200Z,100241.75
2023-05-18T09:31:54.445Z,100251.69
2023-05-18T09:34:24.735Z,100248.16
2023-05-18T09:36:54.157Z,100251.81
2023-05-18T09:39:22.357Z,100251.66
2023-05-18T09:41:56.475Z,100239.00
2023-05-18T09:44:32.789Z,100253.44
2023-05-18T09:47:01.026Z,100262.91
2023-05-18T09:49:31.659Z,100258.53
2023-05-18T09:52:00.376Z,100252.69
2023-05-18T09:54:29.103Z,100247.28
2023-05-18T09:57:10.407Z,100246.84
2023-05-18T09:59:39.532Z,100257.91
2023-05-18T10:02:09.221Z,100256.81
2023-05-18T10:04:39.248Z,100246.78
2023-05-18T10:07:13.093Z,100256.63
2023-05-18T10:09:41.706Z,100249.41
2023-05-18T10:12:16.371Z,100253.34
2023-05-18T10:14:46.120Z,100251.97
2023-05-18T10:17:16.775Z,100265.44
2023-05-18T10:19:46.462Z,100254.41
2023-05-18T10:22:18.057Z,100259.28
2023-05-18T10:24:51.388Z,100251.31
2023-05-18T10:27:25.565Z,100256.13
2023-05-18T10:29:55.207Z,100256.44
2023-05-18T10:32:25.514Z,100261.09
2023-05-18T10:34:54.918Z,100258.75
2023-05-18T10:37:24.681Z,100263.63
2023-05-18T10:39:53.373Z,100258.22
2023-05-18T10:42:24.572Z,100265.69
2023-05-18T10:44:54.538Z,100269.34
2023-05-18T10:47:23.549Z,100265.91
2023-05-18T10:49:51.856Z,100272.97
2023-05-18T10:52:21.135Z,100261.22
2023-05-18T10:54:49.789Z,100261.28
2023-05-18T10:57:21.308Z,100255.34
2023-05-18T10:59:51.173Z,100260.25
2023-05-18T11:02:20.205Z,100256.97
2023-05-18T11:04:49.784Z,100263.00
2023-05-18T11:07:18.872Z,100250.91
2023-05-18T11:09:47.161Z,100264.59
2023-05-18T11:12:16.249Z,100259.94
2023-05-18T11:14:53.107Z,100263.00
2023-05-18T11:17:22.847Z,100269.50
2023-05-18T11:20:15.623Z,100268.00
2023-05-18T11:22:48.923Z,100269.69
2023-05-18T11:25:39.702Z,100269.78
2023-05-18T11:28:10.351Z,100279.34
2023-05-18T11:30:51.215Z,100278.28
2023-05-18T11:33:30.981Z,100287.63
2023-05-18T11:36:04.758Z,100275.28
2023-05-18T11:38:52.380Z,100277.50
2023-05-18T11:41:32.353Z,100283.97
2023-05-18T11:44:22.453Z,100286.53
2023-05-18T11:46:56.914Z,100289.41
2023-05-18T11:49:26.753Z,100290.56
2023-05-18T11:52:03.234Z,100291.72
2023-05-18T11:54:36.504Z,100286.41
2023-05-18T11:57:04.789Z,100290.31
2023-05-18T11:59:34.892Z,100287.38
2023-05-18T12:02:05.720Z,100297.53
2023-05-18T12:04:34.665Z,100292.22
2023-05-18T12:07:08.107Z,100286.91
2023-05-18T12:09:36.922Z,100290.03
2023-05-18T12:12:05.441Z,100300.75
2023-05-18T12:14:36.338Z,100295.25
2023-05-18T12:17:06.526Z,100293.22
2023-05-18T12:19:48.993Z,100296.31
2023-05-18T12:22:17.314Z,100292.88
2023-05-18T12:24:46.353Z,100294.56
2023-05-18T12:27:14.550Z,100294.25
2023-05-18T12:29:44.172Z,100292.72
2023-05-18T12:32:14.626Z,100290.41
2023-05-18T12:34:45.830Z,100288.00
2023-05-18T12:37:13.964Z,100288.97
2023-05-18T12:39:42.183Z,100293.13
2023-05-18T12:42:14.655Z,100290.16
2023-05-18T12:44:44.976Z,100285.84
2023-05-18T12:47:15.002Z,100295.00
2023-05-18T12:49:44.832Z,100289.38
2023-05-18T12:52:14.700Z,100292.75
2023-05-18T12:55:00.040Z,100289.44
2023-05-18T12:57:31.139Z,100291.75
2023-05-18T12:59:59.633Z,100290.28
2023-05-18T13:02:37.003Z,100291.00
2023-05-18T13:05:07.631Z,100290.09
2023-05-18T13:07:41.283Z,100289.56
2023-05-18T13:10:14.362Z,100286.81
2023-05-18T13:12:44.457Z,100291.94
2023-05-18T13:15:14.360Z,100293.78
2023-05-18T13:18:00.058Z,100281.00
2023-05-18T13:20:35.979Z,100285.03
2023-05-18T13:23:06.333Z,100284.53
2023-05-18T13:25:34.758Z,100287.31
2023-05-18T13:28:03.072Z,100296.97
2023-05-18T13:30:31.571Z,100286.69
2023-05-18T13:33:01.714Z,100306.56
2023-05-18T13:35:30.181Z,100296.56
2023-05-18T13:37:58.614Z,100300.28
2023-05-18T13:40:26.789Z,100296.56
2023-05-18T13:42:55.205Z,100291.91
2023-05-18T13:45:23.594Z,100288.19
2023-05-18T13:47:53.579Z,100296.81
2023-05-18T13:50:23.934Z,100293.41
2023-05-18T13:52:52.205Z,100302.13
2023-05-18T13:55:20.723Z,100298.50
2023-05-18T13:57:48.896Z,100291.47
2023-05-18T14:00:18.098Z,100289.53
2023-05-18T14:02:46.434Z,100298.06
2023-05-18T14:05:15.297Z,100301.03
2023-05-18T14:07:45.246Z,100306.56
2023-05-18T14:10:14.459Z,100304.63
2023-05-18T14:12:43.568Z,100302.75
2023-05-18T14:15:14.094Z,100299.53
2023-05-18T14:17:43.095Z,100300.59
2023-05-18T14:20:12.206Z,100307.81
2023-05-18T14:22:40.904Z,100304.53
2023-05-18T14:25:10.961Z,100304.19
2023-05-18T14:27:39.075Z,100311.38
2023-05-18T14:30:08.766Z,100305.75
2023-05-18T14:32:37.176Z,100305.19
2023-05-18T14:35:06.137Z,100309.81
2023-05-18T14:37:34.289Z,100309.91
2023-05-18T14:40:03.130Z,100315.34
2023-05-18T14:42:32.825Z,100309.00
2023-05-18T14:45:01.107Z,100316.00
2023-05-18T14:47:29.289Z,100307.94
2023-05-18T14:49:57.560Z,100308.44
2023-05-18T14:52:26.323Z,100317.38
2023-05-18T14:54:54.481Z,100312.50
2023-05-18T14:57:24.151Z,100318.34
2023-05-18T14:59:55.026Z,100317.56
2023-05-18T15:02:23.263Z,100320.09
2023-05-18T15:04:51.512Z,100329.00
2023-05-18T15:07:19.779Z,100330.00
2023-05-18T15:09:47.944Z,100319.03
2023-05-18T15:12:17.302Z,100324.47
2023-05-18T15:14:45.496Z,100324.16
2023-05-18T15:17:15.766Z,100323.00
2023-05-18T15:19:43.944Z,100317.69
2023-05-18T15:22:12.062Z,100329.59
2023-05-18T15:24:40.592Z,100323.47
2023-05-18T15:27:10.630Z,100329.72
2023-05-18T15:29:44.085Z,100309.31
2023-05-18T15:32:12.596Z,100326.34
2023-05-18T15:34:44.762Z,100331.31
2023-05-18T15:37:13.452Z,100308.34
2023-05-18T15:39:42.609Z,100323.34
2023-05-18T15:42:12.457Z,100326.19
2023-05-18T15:44:40.904Z,100330.47
2023-05-18T15:47:11.469Z,100324.28
2023-05-18T15:49:39.793Z,100325.25
2023-05-18T15:52:12.005Z,100327.69
2023-05-18T15:54:40.319Z,100318.97
2023-05-18T15:57:11.635Z,100326.00
2023-05-18T15:59:39.751Z,100328.13
2023-05-18T16:02:08.409Z,100334.47
2023-05-18T16:04:36.567Z,100340.63
2023-05-18T16:07:04.780Z,100330.63
2023-05-18T16:09:34.313Z,100338.91
2023-05-18T16:12:02.545Z,100327.88
2023-05-18T16:14:30.702Z,100342.59
2023-05-18T16:16:59.021Z,100324.34
2023-05-18T16:19:27.843Z,100333.78
2023-05-18T16:21:56.906Z,100341.41
2023-05-18T16:24:25.282Z,100333.47
2023-05-18T16:26:54.929Z,100307.97
2023-05-18T16:29:22.996Z,100340.69
2023-05-18T16:31:52.206Z,100338.13
2023-05-18T16:34:20.517Z,100340.19
2023-05-18T16:36:48.803Z,100352.03
2023-05-18T16:39:17.034Z,100342.84
2023-05-18T16:41:45.154Z,100342.72
2023-05-18T16:44:14.742Z,100344.22
2023-05-18T16:46:42.918Z,100342.53
2023-05-18T16:49:11.223Z,100352.47
2023-05-18T16:51:40.092Z,100357.31
2023-05-18T16:54:08.572Z,100348.28
2023-05-18T16:56:36.795Z,100359.25
2023-05-18T16:59:04.951Z,100351.97
2023-05-18T17:01:34.557Z,100346.66
2023-05-18T17:04:02.857Z,100346.00
2023-05-18T17:06:31.780Z,100343.00
2023-05-18T17:09:00.004Z,100348.50
2023-05-18T17:11:28.530Z,100349.25
2023-05-18T17:13:57.875Z,100345.88
2023-05-18T17:16:26.936Z,100349.66
2023-05-18T17:18:58.001Z,100347.84
2023-05-18T17:21:28.343Z,100354.00
2023-05-18T17:23:56.738Z,100355.69
2023-05-18T17:26:30.551Z,100353.53
2023-05-18T17:28:58.848Z,100364.59
2023-05-18T17:31:27.225Z,100366.31
2023-05-18T17:33:56.812Z,100365.56
2023-05-18T17:36:25.066Z,100364.72
2023-05-18T17:38:53.201Z,100365.00
2023-05-18T17:41:22.496Z,100369.75
2023-05-18T17:43:50.684Z,100372.06
2023-05-18T17:46:18.832Z,100361.97
2023-05-18T17:48:47.002Z,100365.47
2023-05-18T17:51:16.727Z,100359.91
2023-05-18T17:53:45.366Z,100346.63
2023-05-18T17:56:13.736Z,100354.66
2023-05-18T17:58:42.008Z,100338.50
2023-05-18T18:01:10.863Z,100342.84
2023-05-18T18:03:39.500Z,100343.78
2023-05-18T18:06:08.389Z,100348.69
2023-05-18T18:08:38.006Z,100356.63
2023-05-18T18:11:09.051Z,100356.44
2023-05-18T18:13:37.735Z,100350.50
2023-05-18T18:16:07.109Z,100363.34
2023-05-18T18:18:36.845Z,100370.44
2023-05-18T18:21:06.689Z,100370.44
2023-05-18T18:23:35.153Z,100363.63
2023-05-18T18:26:05.982Z,100378.56
2023-05-18T18:28:35.327Z,100388.97
2023-05-18T18:31:04.357Z,100398.03
2023-05-18T18:33:32.924Z,100384.97
2023-05-18T18:36:02.648Z,100404.28
2023-05-18T18:38:34.081Z,100409.84
2023-05-18T18:41:05.062Z,100407.34
2023-05-18T18:43:35.530Z,100402.25
2023-05-18T18:46:04.291Z,100404.81
2023-05-18T18:48:33.246Z,100404.03
2023-05-18T18:51:02.343Z,100403.28
2023-05-18T18:53:31.408Z,100398.00
2023-05-18T18:56:08.462Z,100399.88
2023-05-18T18:58:38.448Z,100406.84
2023-05-18T19:01:07.896Z,100405.16
2023-05-18T19:03:36.239Z,100399.28
2023-05-18T19:06:04.539Z,100393.22
2023-05-18T19:08:34.054Z,100402.88
2023-05-18T19:11:02.215Z,100405.69
2023-05-18T19:13:30.652Z,100406.63
2023-05-18T19:16:00.401Z,100414.06
2023-05-18T19:18:28.830Z,100423.78
2023-05-18T19:20:59.252Z,100420.41
2023-05-18T19:23:27.705Z,100421.41
2023-05-18T19:25:56.590Z,100432.69
2023-05-18T19:28:24.844Z,100433.38
2023-05-18T19:30:53.727Z,100429.88
2023-05-18T19:33:23.345Z,100439.50
2023-05-18T19:35:52.941Z,100436.75
2023-05-18T19:38:22.595Z,100436.91
2023-05-18T19:40:51.116Z,100448.38
2023-05-18T19:43:19.614Z,100443.25
2023-05-18T19:45:50.116Z,100450.94
2023-05-18T19:48:18.727Z,100453.75
2023-05-18T19:50:48.310Z,100457.06
2023-05-18T19:53:16.580Z,100456.91
2023-05-18T19:55:45.035Z,100459.63
2023-05-18T19:58:13.551Z,100462.47
2023-05-18T20:00:42.332Z,100472.19
2023-05-18T20:03:10.777Z,100466.97
2023-05-18T20:05:39.141Z,100469.78
2023-05-18T20:08:10.309Z,100469.56
2023-05-18T20:10:38.521Z,100483.88
2023-05-18T20:13:06.804Z,100476.00
2023-05-18T20:15:37.293Z,100475.25
2023-05-18T20:18:07.017Z,100471.78
2023-05-18T20:20:35.817Z,100479.69
2023-05-18T20:23:06.840Z,100482.16
2023-05-18T20:25:36.643Z,100480.47
2023-05-18T20:28:07.400Z,100464.94
2023-05-18T20:30:35.892Z,100481.56
2023-05-18T20:33:04.883Z,100485.00
2023-05-18T20:35:33.683Z,100481.50
2023-05-18T20:38:04.799Z,100484.22
2023-05-18T20:40:33.520Z,100493.84
2023-05-18T20:43:04.957Z,100487.81
2023-05-18T20:45:33.574Z,100486.09
2023-05-18T20:48:04.675Z,100488.56
2023-05-18T20:50:35.380Z,100483.09
2023-05-18T20:53:03.528Z,100473.47
2023-05-18T20:55:32.212Z,100492.41
2023-05-18T20:58:02.663Z,100487.13
2023-05-18T21:00:32.477Z,100490.53
2023-05-18T21:03:04.312Z,100491.31
2023-05-18T21:05:33.972Z,100496.34
2023-05-18T21:08:02.167Z,100494.44
2023-05-18T21:10:33.238Z,100490.00
2023-05-18T21:13:01.509Z,100490.88
2023-05-18T21:15:36.848Z,100494.78
2023-05-18T21:18:05.649Z,100499.19
2023-05-18T21:20:34.161Z,100497.50
2023-05-18T21:23:02.475Z,100505.53
2023-05-18T21:25:30.956Z,100508.94
2023-05-18T21:28:01.391Z,100502.72
2023-05-18T21:30:32.714Z,100503.66
2023-05-18T21:33:02.987Z,100506.91
2023-05-18T21:35:31.404Z,100508.59
2023-05-18T21:38:00.701Z,100511.25
2023-05-18T21:40:31.860Z,100509.28
2023-05-18T21:43:02.023Z,100515.34
2023-05-18T21:45:31.147Z,100510.81
2023-05-18T21:48:02.347Z,100513.47
2023-05-18T21:50:35.155Z,100516.75
2023-05-18T21:53:04.173Z,100515.06
2023-05-18T21:55:32.680Z,100509.50
2023-05-18T21:58:01.082Z,100524.53
2023-05-18T22:00:30.123Z,100518.97
2023-05-18T22:03:01.671Z,100523.25
2023-05-18T22:05:31.220Z,100533.84
2023-05-18T22:08:01.097Z,100527.78
2023-05-18T22:10:31.337Z,100527.78
2023-05-18T22:12:59.749Z,100520.69
2023-05-18T22:15:27.957Z,100519.81
2023-05-18T22:17:56.346Z,100522.56
2023-05-18T22:20:24.685Z,100523.69
2023-05-18T22:22:57.056Z,100527.28
2023-05-18T22:25:28.640Z,100532.47
2023-05-18T22:27:57.094Z,100532.91
2023-05-18T22:30:28.654Z,100533.06
2023-05-18T22:32:58.736Z,100535.22
2023-05-18T22:35:26.904Z,100522.16
2023-05-18T22:37:56.500Z,100529.25
2023-05-18T22:40:24.841Z,100531.31
2023-05-18T22:42:55.205Z,100520.88
2023-05-18T22:45:23.539Z,100524.47
2023-05-18T22:47:52.867Z,100525.34
2023-05-18T22:50:21.341Z,100519.34
2023-05-18T22:52:49.484Z,100519.25
2023-05-18T22:55:19.166Z,100516.53
2023-05-18T22:57:47.483Z,100519.34
2023-05-18T23:00:17.786Z,100514.22
2023-05-18T23:02:46.029Z,100511.69
2023-05-18T23:05:14.641Z,100516.28
2023-05-18T23:07:43.226Z,100516.13
2023-05-18T23:10:12.778Z,100511.84
2023-05-18T23:12:42.761Z,100513.63
2023-05-18T23:15:11.934Z,100516.44
2023-05-18T23:17:40.146Z,100515.81
2023-05-18T23:20:10.566Z,100518.69
2023-05-18T23:22:38.759Z,100516.22
2023-05-18T23:25:09.051Z,100514.00
2023-05-18T23:27:37.475Z,100522.09
2023-05-18T23:30:08.111Z,100526.53
2023-05-18T23:32:37.036Z,100525.00
2023-05-18T23:35:06.969Z,100526.78
2023-05-18T23:37:40.422Z,100528.69
2023-05-18T23:40:11.973Z,100524.25
2023-05-18T23:42:40.703Z,100532.19
2023-05-18T23:45:11.984Z,100529.59
2023-05-18T23:47:40.733Z,100526.09
2023-05-18T23:50:09.957Z,100525.19
2023-05-18T23:52:39.342Z,100523.44
2023-05-18T23:55:11.549Z,100530.63
2023-05-18T23:57:40.232Z,100527.03
